createdAt,value
2022-11-27T00:00:58.078Z,79.18
2022-11-27T00:04:41.286Z,78.86
2022-11-27T00:08:24.477Z,79.02
2022-11-27T00:12:07.795Z,79.07
2022-11-27T00:15:52.143Z,79.54
2022-11-27T00:19:34.868Z,79.98
2022-11-27T00:23:17.585Z,80.04
2022-11-27T00:27:00.335Z,79.37
2022-11-27T00:30:43.152Z,78.99
2022-11-27T00:34:27.386Z,79.10
2022-11-27T00:38:10.338Z,79.64
2022-11-27T00:41:53.059Z,79.69
2022-11-27T00:45:35.698Z,78.51
2022-11-27T00:49:18.622Z,78.01
2022-11-27T00:53:02.729Z,78.24
2022-11-27T00:56:45.863Z,78.07
2022-11-27T01:00:28.541Z,77.73
2022-11-27T01:04:14.136Z,77.91
2022-11-27T01:07:56.899Z,77.41
2022-11-27T01:11:41.775Z,76.89
2022-11-27T01:15:24.431Z,77.29
2022-11-27T01:19:07.130Z,77.68
2022-11-27T01:22:49.926Z,77.42
2022-11-27T01:26:33.217Z,76.98
2022-11-27T01:30:17.590Z,77.23
2022-11-27T01:34:02.421Z,77.02
2022-11-27T01:37:45.212Z,77.04
2022-11-27T01:41:29.929Z,76.85
2022-11-27T01:45:13.011Z,76.65
2022-11-27T01:49:01.500Z,76.54
2022-11-27T01:52:49.663Z,77.76
2022-11-27T01:56:32.528Z,77.67
2022-11-27T02:00:17.049Z,77.10
2022-11-27T02:04:03.588Z,76.79
2022-11-27T02:07:46.557Z,76.25
2022-11-27T02:11:33.046Z,76.89
2022-11-27T02:15:18.142Z,76.90
2022-11-27T02:19:10.273Z,76.67
2022-11-27T02:23:17.455Z,76.22
2022-11-27T02:27:36.480Z,77.50
2022-11-27T02:31:24.887Z,77.78
2022-11-27T02:35:11.610Z,77.85
2022-11-27T02:38:56.646Z,77.97
2022-11-27T02:42:43.369Z,77.70
2022-11-27T02:46:28.823Z,77.26
2022-11-27T02:50:17.395Z,76.96
2022-11-27T02:54:03.181Z,77.44
2022-11-27T02:57:46.781Z,77.42
2022-11-27T03:01:34.302Z,77.67
2022-11-27T03:05:20.253Z,77.48
2022-11-27T03:09:08.289Z,77.62
2022-11-27T03:12:51.901Z,77.93
2022-11-27T03:16:40.279Z,78.03
2022-11-27T03:20:25.446Z,78.25
2022-11-27T03:24:09.480Z,77.93
2022-11-27T03:27:56.515Z,78.06
2022-11-27T03:31:41.193Z,78.64
2022-11-27T03:35:26.671Z,77.98
2022-11-27T03:39:09.558Z,77.81
2022-11-27T03:42:58.958Z,77.84
2022-11-27T03:46:50.617Z,77.82
2022-11-27T03:50:39.981Z,77.22
2022-11-27T03:54:32.564Z,77.41
2022-11-27T03:58:19.313Z,77.08
2022-11-27T04:02:03.539Z,76.80
2022-11-27T04:05:46.278Z,76.78
2022-11-27T04:09:28.940Z,77.04
2022-11-27T04:13:11.611Z,77.17
2022-11-27T04:16:54.307Z,77.03
2022-11-27T04:20:38.517Z,76.73
2022-11-27T04:24:21.199Z,76.54
2022-11-27T04:28:03.881Z,76.54
2022-11-27T04:31:46.637Z,77.15
2022-11-27T04:35:29.369Z,77.11
2022-11-27T04:39:14.204Z,77.50
2022-11-27T04:42:56.916Z,78.18
2022-11-27T04:46:39.659Z,78.21
2022-11-27T04:50:22.424Z,77.98
2022-11-27T04:54:05.424Z,77.56
2022-11-27T04:57:49.508Z,77.45
2022-11-27T05:01:32.357Z,77.50
2022-11-27T05:05:15.013Z,77.20
2022-11-27T05:09:01.881Z,77.24
2022-11-27T05:12:44.576Z,77.51
2022-11-27T05:16:28.853Z,77.33
2022-11-27T05:20:12.000Z,77.17
2022-11-27T05:23:54.688Z,77.30
2022-11-27T05:27:37.412Z,77.39
2022-11-27T05:31:20.191Z,77.41
2022-11-27T05:35:04.457Z,77.89
2022-11-27T05:38:47.267Z,77.51
2022-11-27T05:42:29.928Z,77.31
2022-11-27T05:46:15.455Z,76.95
2022-11-27T05:49:58.189Z,75.98
2022-11-27T05:53:42.255Z,76.81
2022-11-27T05:57:25.039Z,76.84
2022-11-27T06:01:08.344Z,77.12
2022-11-27T06:04:51.056Z,77.01
2022-11-27T06:08:33.746Z,76.85
2022-11-27T06:12:17.799Z,76.62
2022-11-27T06:16:00.555Z,77.30
2022-11-27T06:19:43.490Z,76.96
2022-11-27T06:23:26.228Z,77.07
2022-11-27T06:27:09.040Z,77.11
2022-11-27T06:30:53.099Z,76.86
2022-11-27T06:34:35.736Z,76.62
2022-11-27T06:38:18.436Z,76.29
2022-11-27T06:42:01.144Z,76.07
2022-11-27T06:45:43.879Z,76.74
2022-11-27T06:49:27.951Z,76.36
2022-11-27T06:53:10.628Z,76.05
2022-11-27T06:56:53.709Z,75.35
2022-11-27T07:00:36.546Z,75.74
2022-11-27T07:04:19.241Z,75.59
2022-11-27T07:08:03.337Z,75.83
2022-11-27T07:11:46.016Z,76.01
2022-11-27T07:15:28.795Z,75.98
2022-11-27T07:19:11.515Z,76.31
2022-11-27T07:22:54.270Z,76.83
2022-11-27T07:26:40.828Z,76.31
2022-11-27T07:30:23.494Z,76.26
2022-11-27T07:34:11.678Z,75.77
2022-11-27T07:37:58.785Z,75.73
2022-11-27T07:41:42.772Z,76.33
2022-11-27T07:45:25.534Z,75.98
2022-11-27T07:49:08.321Z,76.30
2022-11-27T07:52:50.979Z,76.42
2022-11-27T07:56:33.859Z,76.80
2022-11-27T08:00:19.036Z,77.15
2022-11-27T08:04:01.718Z,77.49
2022-11-27T08:07:44.426Z,77.72
2022-11-27T08:11:29.837Z,78.50
2022-11-27T08:15:12.987Z,78.35
2022-11-27T08:18:57.687Z,78.35
2022-11-27T08:22:40.404Z,78.69
2022-11-27T08:26:23.082Z,78.47
2022-11-27T08:30:06.839Z,78.90
2022-11-27T08:33:49.684Z,78.93
2022-11-27T08:37:33.782Z,79.21
2022-11-27T08:41:16.461Z,80.96
2022-11-27T08:44:59.315Z,81.98
2022-11-27T08:48:42.826Z,83.50
2022-11-27T08:52:26.422Z,85.77
2022-11-27T08:56:13.361Z,87.21
2022-11-27T08:59:56.008Z,86.26
2022-11-27T09:03:40.459Z,87.16
2022-11-27T09:07:23.207Z,86.48
2022-11-27T09:11:08.756Z,86.19
2022-11-27T09:14:52.781Z,82.69
2022-11-27T09:18:36.617Z,81.26
2022-11-27T09:22:19.731Z,78.90
2022-11-27T09:26:03.122Z,81.02
2022-11-27T09:29:45.770Z,80.95
2022-11-27T09:33:31.403Z,80.12
2022-11-27T09:37:14.115Z,75.91
2022-11-27T09:41:03.304Z,76.06
2022-11-27T09:44:49.739Z,76.52
2022-11-27T09:48:38.928Z,76.66
2022-11-27T09:52:24.824Z,77.11
2022-11-27T09:56:11.543Z,75.93
2022-11-27T09:59:55.022Z,74.93
2022-11-27T10:03:41.889Z,76.24
2022-11-27T10:07:34.539Z,75.47
2022-11-27T10:11:23.754Z,74.91
2022-11-27T10:15:10.996Z,74.44
2022-11-27T10:18:56.976Z,75.89
2022-11-27T10:22:45.948Z,76.13
2022-11-27T10:26:30.670Z,75.46
2022-11-27T10:30:16.828Z,73.37
2022-11-27T10:34:03.765Z,72.78
2022-11-27T10:37:48.998Z,73.20
2022-11-27T10:41:48.797Z,73.37
2022-11-27T10:45:39.440Z,72.73
2022-11-27T10:49:23.593Z,73.15
2022-11-27T10:53:08.632Z,73.04
2022-11-27T10:57:00.626Z,72.69
2022-11-27T11:00:43.346Z,72.59
2022-11-27T11:04:37.919Z,72.16
2022-11-27T11:08:21.910Z,72.06
2022-11-27T11:12:08.655Z,71.58
2022-11-27T11:15:54.480Z,71.99
2022-11-27T11:19:39.014Z,72.32
2022-11-27T11:23:24.712Z,71.98
2022-11-27T11:27:13.567Z,71.60
2022-11-27T11:30:59.747Z,70.33
2022-11-27T11:34:45.317Z,70.11
2022-11-27T11:38:31.009Z,69.63
2022-11-27T11:42:20.028Z,68.98
2022-11-27T11:46:08.950Z,68.73
2022-11-27T11:49:54.038Z,67.89
2022-11-27T11:53:38.198Z,67.15
2022-11-27T11:57:35.191Z,66.98
2022-11-27T12:01:27.986Z,66.99
2022-11-27T12:05:25.940Z,67.84
2022-11-27T12:09:20.890Z,68.26
2022-11-27T12:13:09.554Z,68.17
2022-11-27T12:17:01.598Z,66.44
2022-11-27T12:20:55.061Z,66.31
2022-11-27T12:24:45.200Z,71.79
2022-11-27T12:28:45.586Z,66.55
2022-11-27T12:32:50.906Z,63.84
2022-11-27T12:36:54.737Z,63.60
2022-11-27T12:40:51.222Z,62.86
2022-11-27T12:44:40.687Z,62.96
2022-11-27T12:48:27.765Z,62.89
2022-11-27T12:52:15.753Z,63.62
2022-11-27T12:56:04.906Z,63.66
2022-11-27T12:59:50.291Z,63.31
2022-11-27T13:03:37.380Z,62.03
2022-11-27T13:07:24.037Z,64.94
2022-11-27T13:11:10.032Z,66.22
2022-11-27T13:14:56.404Z,65.89
2022-11-27T13:18:43.101Z,65.88
2022-11-27T13:22:33.101Z,65.52
2022-11-27T13:26:23.220Z,65.44
2022-11-27T13:30:10.071Z,65.83
2022-11-27T13:33:53.839Z,64.46
2022-11-27T13:37:40.795Z,64.60
2022-11-27T13:41:25.207Z,64.79
2022-11-27T13:45:11.171Z,65.07
2022-11-27T13:48:55.393Z,65.21
2022-11-27T13:52:39.806Z,64.99
2022-11-27T13:56:30.121Z,65.41
2022-11-27T14:00:16.207Z,65.63
2022-11-27T14:04:08.077Z,66.44
2022-11-27T14:07:53.892Z,66.94
2022-11-27T14:11:41.307Z,67.72
2022-11-27T14:15:25.959Z,68.34
2022-11-27T14:19:30.680Z,68.75
2022-11-27T14:23:27.703Z,68.56
2022-11-27T14:27:17.971Z,68.03
2022-11-27T14:31:01.842Z,68.11
2022-11-27T14:34:47.646Z,69.14
2022-11-27T14:38:38.688Z,69.74
2022-11-27T14:42:28.258Z,70.08
2022-11-27T14:46:16.826Z,76.12
2022-11-27T14:50:00.215Z,74.94
2022-11-27T14:53:46.631Z,73.86
2022-11-27T14:57:32.260Z,73.20
2022-11-27T15:01:23.833Z,73.25
2022-11-27T15:05:17.229Z,71.89
2022-11-27T15:09:29.685Z,73.17
2022-11-27T15:13:05.069Z,73.89
2022-11-27T15:16:50.559Z,74.58
2022-11-27T15:20:39.012Z,73.88
2022-11-27T15:24:34.142Z,73.97
2022-11-27T15:28:28.667Z,74.87
2022-11-27T15:32:22.931Z,74.85
2022-11-27T15:36:21.431Z,74.94
2022-11-27T15:40:23.881Z,75.29
2022-11-27T15:44:06.630Z,76.76
2022-11-27T15:48:00.896Z,79.11
2022-11-27T15:51:44.954Z,81.29
2022-11-27T15:55:30.715Z,82.24
2022-11-27T15:59:17.440Z,81.30
2022-11-27T16:03:05.266Z,80.62
2022-11-27T16:06:48.312Z,80.76
2022-11-27T16:10:32.589Z,79.63
2022-11-27T16:14:15.499Z,78.25
2022-11-27T16:17:58.229Z,76.78
2022-11-27T16:21:40.995Z,76.30
2022-11-27T16:25:25.129Z,76.42
2022-11-27T16:29:12.077Z,76.50
2022-11-27T16:32:54.848Z,76.65
2022-11-27T16:36:44.383Z,76.87
2022-11-27T16:40:29.526Z,78.45
2022-11-27T16:44:16.628Z,77.91
2022-11-27T16:47:59.716Z,77.13
2022-11-27T16:51:47.495Z,76.62
2022-11-27T16:55:36.004Z,76.61
2022-11-27T16:59:20.029Z,76.57
2022-11-27T17:03:02.707Z,76.45
2022-11-27T17:06:45.949Z,76.42
2022-11-27T17:10:28.646Z,76.85
2022-11-27T17:14:11.760Z,77.32
2022-11-27T17:17:58.534Z,77.53
2022-11-27T17:21:41.611Z,78.05
2022-11-27T17:25:25.255Z,78.31
2022-11-27T17:29:08.560Z,78.45
2022-11-27T17:32:51.313Z,78.55
2022-11-27T17:36:37.472Z,78.33
2022-11-27T17:40:20.439Z,78.65
2022-11-27T17:44:09.875Z,78.77
2022-11-27T17:47:52.561Z,79.64
2022-11-27T17:51:37.465Z,79.97
2022-11-27T17:55:20.368Z,80.17
2022-11-27T17:59:03.236Z,80.46
2022-11-27T18:02:46.059Z,80.37
2022-11-27T18:06:31.405Z,79.71
2022-11-27T18:10:16.633Z,79.88
2022-11-27T18:13:59.671Z,79.83
2022-11-27T18:17:42.381Z,79.93
2022-11-27T18:21:26.979Z,79.52
2022-11-27T18:25:09.924Z,79.63
2022-11-27T18:28:56.611Z,79.78
2022-11-27T18:32:40.009Z,80.09
2022-11-27T18:36:22.742Z,80.00
2022-11-27T18:40:06.411Z,79.89
2022-11-27T18:43:49.338Z,79.59
2022-11-27T18:47:33.744Z,80.15
2022-11-27T18:51:18.183Z,79.95
2022-11-27T18:55:01.582Z,81.08
2022-11-27T18:58:45.520Z,81.77
2022-11-27T19:02:28.487Z,81.60
2022-11-27T19:06:14.589Z,93.20
2022-11-27T19:10:01.618Z,100.00
2022-11-27T19:13:48.193Z,83.20
2022-11-27T19:17:32.604Z,81.63
2022-11-27T19:21:19.786Z,80.81
2022-11-27T19:25:02.665Z,80.82
2022-11-27T19:28:55.468Z,80.28
2022-11-27T19:32:39.441Z,80.84
2022-11-27T19:36:24.516Z,80.75
2022-11-27T19:40:11.969Z,81.61
2022-11-27T19:43:55.497Z,81.38
2022-11-27T19:47:38.566Z,81.81
2022-11-27T19:51:21.536Z,81.73
2022-11-27T19:55:08.950Z,81.89
2022-11-27T19:58:51.719Z,81.51
2022-11-27T20:02:37.545Z,81.58
2022-11-27T20:06:22.323Z,81.19
2022-11-27T20:10:07.590Z,81.29
2022-11-27T20:13:50.941Z,81.58
2022-11-27T20:17:33.886Z,82.14
2022-11-27T20:21:18.477Z,82.06
2022-11-27T20:25:18.896Z,82.55
2022-11-27T20:29:03.538Z,83.20
2022-11-27T20:32:47.434Z,84.43
2022-11-27T20:36:31.421Z,84.93
2022-11-27T20:40:14.371Z,85.80
2022-11-27T20:44:04.823Z,86.03
2022-11-27T20:47:48.358Z,85.15
2022-11-27T20:51:34.323Z,84.70
2022-11-27T20:55:17.321Z,84.44
2022-11-27T20:59:02.729Z,83.81
2022-11-27T21:02:47.057Z,83.40
2022-11-27T21:06:31.562Z,83.15
2022-11-27T21:10:16.613Z,83.88
2022-11-27T21:14:06.540Z,83.29
2022-11-27T21:17:50.587Z,82.28
2022-11-27T21:21:36.031Z,82.10
2022-11-27T21:25:24.005Z,85.60
2022-11-27T21:29:08.449Z,83.99
2022-11-27T21:32:52.687Z,83.26
2022-11-27T21:36:37.270Z,82.87
2022-11-27T21:40:20.239Z,81.99
2022-11-27T21:44:03.523Z,81.52
2022-11-27T21:47:49.484Z,81.44
2022-11-27T21:51:33.588Z,80.94
2022-11-27T21:55:16.472Z,80.37
2022-11-27T21:58:59.351Z,80.39
2022-11-27T22:02:44.571Z,80.06
2022-11-27T22:06:30.577Z,80.57
2022-11-27T22:10:14.923Z,80.12
2022-11-27T22:13:58.562Z,79.15
2022-11-27T22:17:42.485Z,78.59
2022-11-27T22:21:29.889Z,78.25
2022-11-27T22:25:18.017Z,78.33
2022-11-27T22:29:01.005Z,77.65
2022-11-27T22:32:44.040Z,78.27
2022-11-27T22:36:31.778Z,78.26
2022-11-27T22:40:16.607Z,78.03
2022-11-27T22:44:02.604Z,77.81
2022-11-27T22:47:45.388Z,78.42
2022-11-27T22:51:33.072Z,77.91
2022-11-27T22:55:17.547Z,78.11
2022-11-27T22:59:24.778Z,78.28
2022-11-27T23:03:03.803Z,78.48
2022-11-27T23:06:48.610Z,78.05
2022-11-27T23:10:33.131Z,78.37
2022-11-27T23:14:16.084Z,78.47
2022-11-27T23:17:59.082Z,78.42
2022-11-27T23:21:42.092Z,78.44
2022-11-27T23:25:25.152Z,78.31
2022-11-27T23:29:09.571Z,78.24
2022-11-27T23:32:54.315Z,78.25
2022-11-27T23:36:40.629Z,78.21
2022-11-27T23:40:23.515Z,78.41
2022-11-27T23:44:09.318Z,78.42
2022-11-27T23:47:56.497Z,78.42
2022-11-27T23:51:40.754Z,78.50
2022-11-27T23:55:25.709Z,77.86
2022-11-27T23:59:08.534Z,77.93
